Nearby METAR Reports

 

KSFO - San Francisco, California, USA
Distance from station: NNW 8km
Updated: Thu, 26-Apr-2018 9:56am PDT
Mostly cloudy
Mostly cloudy
 Wind from W
Wind: W 12 mph , 19 km/h
Temperature: 55°F , 13°C
Dew Point: 45°F , 7°C
Humidity: 67%
Barometer: 30.06 inHg , 1017.9 hPa
Clouds: Mostly cloudy
Visibility: 10 miles , 16 km
Cloud details: Few Clouds 1800 ft
Mostly cloudy 2100 ft
2018/04/26 16:56 KSFO 261656Z 28010KT 10SM FEW018 BKN021 13/07 A3006 RMK AO2 SLP178 T01330067
KSQL - San Carlos Airpo, California, USA
Distance from station: ESE 8km
Updated: Thu, 26-Apr-2018 9:47am PDT
Mostly cloudy
Mostly cloudy
 Wind from W
Wind: W 9 mph , 15 km/h
Temperature: 55°F , 13°C
Dew Point: 45°F , 7°C
Humidity: 67%
Barometer: 30.06 inHg , 1017.9 hPa
Clouds: Mostly cloudy
Visibility: 10 miles , 16 km
Cloud details: Mostly cloudy 2200 ft
2018/04/26 16:47 KSQL 261647Z 28008KT 10SM BKN022 13/07 A3006
 
KHAF - Half Moon Bay, California, USA
Distance from station: WSW 15km
Updated: Thu, 26-Apr-2018 10:15am PDT
Overcast
Overcast
 Wind from WNW
Wind: WNW 6 mph , 9 km/h
Temperature: 54°F , 12°C
Dew Point: 46°F , 8°C
Humidity: 77%
Barometer: 30.08 inHg , 1018.6 hPa
Clouds: Overcast
Visibility: 9 miles , 14 km
Cloud details: Overcast 1800 ft
2018/04/26 17:15 KHAF 261715Z AUTO 30005KT 9SM OVC018 12/08 A3008 RMK AO2
KOAK - Oakland, California, USA
Distance from station: NNE 21km
Updated: Thu, 26-Apr-2018 9:53am PDT
Mostly cloudy
Mostly cloudy
 Wind from W
Wind: W 12 mph , 19 km/h
Temperature: 55°F , 13°C
Dew Point: 46°F , 8°C
Humidity: 72%
Barometer: 30.06 inHg , 1017.9 hPa
Clouds: Mostly cloudy
Visibility: 10 miles , 16 km
Cloud details: Mostly cloudy 2000 ft
2018/04/26 16:53 KOAK 261653Z 26010KT 10SM BKN020 13/08 A3006 RMK AO2 SLP180 T01280078
 
KPAO - Palo Alto, California, USA
Distance from station: ESE 21km
Updated: Thu, 26-Apr-2018 9:47am PDT
Mostly cloudy
Mostly cloudy
 Wind from N
Wind: N 8 mph , 13 km/h
Barometer: 30.05 inHg , 1017.6 hPa
Clouds: Mostly cloudy
Visibility: 10 miles , 16 km
Cloud details: Mostly cloudy 1900 ft
2018/04/26 16:47 KPAO 261647Z 35007KT 10SM BKN019 A3005
KHWD - Hayward, California, USA
Distance from station: NE 23km
Updated: Thu, 26-Apr-2018 9:54am PDT
Overcast
Overcast
 Wind from NW
Wind: NW 9 mph , 15 km/h
Temperature: 55°F , 13°C
Dew Point: 45°F , 7°C
Humidity: 67%
Barometer: 30.06 inHg , 1017.9 hPa
Clouds: Overcast
Visibility: 10 miles , 16 km
Cloud details: Overcast 1800 ft
2018/04/26 16:54 KHWD 261654Z 31008KT 10SM OVC018 13/07 A3006 RMK AO2 SLP187 T01280067
 
KNUQ - Moffett Nas/Mtn, California, USA
Distance from station: ESE 30km
Updated: Thu, 26-Apr-2018 9:56am PDT
Overcast
Overcast
 Wind from varies
Wind: varies 5 mph , 7 km/h
Temperature: 57°F , 14°C
Dew Point: 48°F , 9°C
Humidity: 72%
Barometer: 30.06 inHg , 1017.9 hPa
Clouds: Overcast
Visibility: 10 miles , 16 km
Cloud details: Overcast 2100 ft
2018/04/26 16:56 KNUQ 261656Z VRB04KT 10SM OVC021 14/09 A3006 RMK AO2 SLP180 T01440089
KSJC - San Jose, California, USA
Distance from station: ESE 42km
Updated: Thu, 26-Apr-2018 9:53am PDT
Partly cloudy
Partly cloudy
 Wind from varies
Wind: varies 3 mph , 6 km/h
Temperature: 57°F , 14°C
Dew Point: 48°F , 9°C
Humidity: 72%
Barometer: 30.05 inHg , 1017.6 hPa
Clouds: Partly cloudy
Visibility: 8 miles , 13 km
Cloud details: Few Clouds 100 ft
Few Clouds 1600 ft
Partly cloudy 2300 ft
2018/04/26 16:53 KSJC 261653Z VRB03KT 8SM FEW001 FEW016 SCT023 14/09 A3005 RMK AO2 SLP174 T01440089 $
 
KLVK - Livermore, California, USA
Distance from station: ENE 49km
Updated: Thu, 26-Apr-2018 9:53am PDT
Few Clouds
Few Clouds
 Wind from NW
Wind: NW 7 mph , 11 km/h
Temperature: 57°F , 14°C
Dew Point: 48°F , 9°C
Humidity: 72%
Barometer: 30.02 inHg , 1016.6 hPa
Clouds: Few Clouds
Visibility: 10 miles , 16 km
Cloud details: Few Clouds 1800 ft
2018/04/26 16:53 KLVK 261653Z 31006KT 10SM FEW018 14/09 A3002 RMK AO2 SLP166 T01440094
KRHV - San Jose/Reid, California, USA
Distance from station: ESE 53km
Updated: Thu, 26-Apr-2018 9:49am PDT
Partly cloudy
Partly cloudy
 Wind from varies
Wind: varies 6 mph , 9 km/h
Temperature: 63°F , 17°C
Dew Point: 48°F , 9°C
Humidity: 59%
Barometer: 30.03 inHg , 1016.9 hPa
Clouds: Partly cloudy
Visibility: 8 miles , 13 km
Cloud details: Partly cloudy 2300 ft
2018/04/26 16:49 KRHV 261649Z VRB05KT 8SM SCT023 17/09 A3003
 
KCCR - Concord, California, USA
Distance from station: NNE 56km
Updated: Thu, 26-Apr-2018 9:53am PDT
Clear
Clear
 Wind from W
Wind: W 10 mph , 17 km/h
Temperature: 61°F , 16°C
Dew Point: 46°F , 8°C
Humidity: 59%
Barometer: 30.02 inHg , 1016.6 hPa
Clouds: Clear
Visibility: 10 miles , 16 km
2018/04/26 16:53 KCCR 261653Z 27009KT 10SM CLR 16/08 A3002 RMK AO2 SLP153 T01610078
KDVO - Novato/Gnoss Fld, California, USA
Distance from station: NNW 70km
Updated: Thu, 26-Apr-2018 10:15am PDT
Overcast
Overcast
 Wind from varies
Wind: varies 5 mph , 7 km/h
Temperature: 57°F , 14°C
Dew Point: 46°F , 8°C
Humidity: 67%
Barometer: 30.05 inHg , 1017.6 hPa
Clouds: Overcast
Visibility: 10 miles , 16 km
Cloud details: Overcast 2100 ft
2018/04/26 17:15 KDVO 261715Z AUTO VRB04KT 10SM OVC021 14/08 A3005 RMK AO2
 
KAPC - Napa, California, USA
Distance from station: N 73km
Updated: Thu, 26-Apr-2018 9:54am PDT
Mostly cloudy
Mostly cloudy
 Wind from W
Wind: W 12 mph , 19 km/h
Temperature: 54°F , 12°C
Dew Point: 46°F , 8°C
Humidity: 77%
Barometer: 30.04 inHg , 1017.3 hPa
Clouds: Mostly cloudy
Visibility: 10 miles , 16 km
Cloud details: Mostly cloudy 1600 ft
2018/04/26 16:54 KAPC 261654Z 26010KT 10SM BKN016 12/08 A3004 RMK AO2 SLP164 T01170078